createdAt,value
2023-03-07T00:02:01.165Z,13.40
2023-03-07T00:04:27.794Z,14.37
2023-03-07T00:06:55.666Z,13.77
2023-03-07T00:09:22.411Z,14.37
2023-03-07T00:11:50.256Z,14.57
2023-03-07T00:14:16.901Z,13.00
2023-03-07T00:16:43.473Z,13.57
2023-03-07T00:19:10.237Z,13.47
2023-03-07T00:21:36.846Z,13.40
2023-03-07T00:24:04.724Z,13.00
2023-03-07T00:26:31.386Z,11.53
2023-03-07T00:28:57.992Z,12.47
2023-03-07T00:31:24.661Z,13.70
2023-03-07T00:33:51.328Z,12.57
2023-03-07T00:36:20.774Z,12.10
2023-03-07T00:38:48.576Z,12.07
2023-03-07T00:41:21.244Z,12.67
2023-03-07T00:43:47.956Z,12.30
2023-03-07T00:46:16.220Z,12.53
2023-03-07T00:48:43.405Z,12.27
2023-03-07T00:51:13.927Z,10.90
2023-03-07T00:53:41.133Z,11.97
2023-03-07T00:56:17.285Z,11.93
2023-03-07T00:58:45.333Z,10.50
2023-03-07T01:01:14.231Z,9.43
2023-03-07T01:03:42.066Z,9.93
2023-03-07T01:06:13.064Z,11.60
2023-03-07T01:08:40.121Z,10.83
2023-03-07T01:11:07.316Z,10.97
2023-03-07T01:13:35.908Z,10.67
2023-03-07T01:16:18.260Z,9.73
2023-03-07T01:18:48.724Z,10.30
2023-03-07T01:21:19.091Z,10.87
2023-03-07T01:23:46.351Z,11.00
2023-03-07T01:26:18.339Z,9.20
2023-03-07T01:28:45.553Z,8.83
2023-03-07T01:31:12.842Z,10.43
2023-03-07T01:33:41.011Z,10.73
2023-03-07T01:36:30.087Z,9.17
2023-03-07T01:39:23.159Z,9.47
2023-03-07T01:41:59.699Z,9.60
2023-03-07T01:44:28.528Z,9.30
2023-03-07T01:47:00.493Z,9.20
2023-03-07T01:49:42.629Z,9.13
2023-03-07T01:52:20.521Z,9.57
2023-03-07T01:55:43.804Z,9.27
2023-03-07T01:58:15.361Z,10.17
2023-03-07T02:00:44.474Z,9.37
2023-03-07T02:03:10.977Z,9.43
2023-03-07T02:06:02.633Z,10.07
2023-03-07T02:08:32.028Z,9.70
2023-03-07T02:10:58.856Z,10.03
2023-03-07T02:13:25.524Z,10.33
2023-03-07T02:15:52.789Z,9.80
2023-03-07T02:18:24.189Z,9.70
2023-03-07T02:21:00.150Z,10.37
2023-03-07T02:23:44.021Z,10.20
2023-03-07T02:26:17.046Z,10.60
2023-03-07T02:28:45.727Z,9.90
2023-03-07T02:31:12.669Z,10.10
2023-03-07T02:33:40.246Z,10.37
2023-03-07T02:36:13.860Z,11.23
2023-03-07T02:38:54.624Z,11.23
2023-03-07T02:41:29.026Z,8.57
2023-03-07T02:43:58.276Z,11.43
2023-03-07T02:46:25.120Z,12.67
2023-03-07T02:48:51.721Z,12.37
2023-03-07T02:51:18.583Z,12.17
2023-03-07T02:53:46.228Z,13.20
2023-03-07T02:56:13.357Z,11.63
2023-03-07T02:58:39.920Z,12.30
2023-03-07T03:01:06.936Z,13.50
2023-03-07T03:03:33.525Z,13.23
2023-03-07T03:06:00.145Z,13.77
2023-03-07T03:08:26.780Z,12.37
2023-03-07T03:10:54.599Z,14.63
2023-03-07T03:13:23.632Z,15.40
2023-03-07T03:15:55.643Z,14.20
2023-03-07T03:18:22.559Z,15.00
2023-03-07T03:20:49.150Z,14.53
2023-03-07T03:23:15.726Z,15.13
2023-03-07T03:25:42.402Z,15.57
2023-03-07T03:28:09.529Z,14.00
2023-03-07T03:30:36.231Z,15.27
2023-03-07T03:33:03.953Z,14.70
2023-03-07T03:35:33.514Z,13.77
2023-03-07T03:38:00.751Z,16.23
2023-03-07T03:40:27.570Z,15.57
2023-03-07T03:42:54.203Z,13.53
2023-03-07T03:45:21.659Z,15.27
2023-03-07T03:47:50.456Z,13.93
2023-03-07T03:50:17.522Z,15.50
2023-03-07T03:52:45.269Z,13.67
2023-03-07T03:55:12.277Z,15.70
2023-03-07T03:57:39.019Z,14.20
2023-03-07T04:00:09.142Z,15.37
2023-03-07T04:02:39.085Z,13.93
2023-03-07T04:05:08.576Z,14.40
2023-03-07T04:07:35.192Z,12.97
2023-03-07T04:10:01.851Z,13.00
2023-03-07T04:12:29.101Z,14.90
2023-03-07T04:14:55.659Z,11.97
2023-03-07T04:17:23.331Z,13.07
2023-03-07T04:19:49.967Z,12.37
2023-03-07T04:22:16.711Z,13.43
2023-03-07T04:24:45.173Z,13.37
2023-03-07T04:27:12.243Z,14.00
2023-03-07T04:29:38.985Z,14.00
2023-03-07T04:32:20.703Z,10.27
2023-03-07T04:34:48.648Z,12.03
2023-03-07T04:37:15.239Z,12.03
2023-03-07T04:39:41.890Z,12.37
2023-03-07T04:42:10.067Z,12.87
2023-03-07T04:44:37.243Z,12.67
2023-03-07T04:47:04.077Z,11.40
2023-03-07T04:49:33.777Z,13.30
2023-03-07T04:52:01.284Z,11.83
2023-03-07T04:54:28.295Z,12.93
2023-03-07T04:56:55.307Z,13.23
2023-03-07T04:59:22.041Z,12.43
2023-03-07T05:01:49.225Z,11.83
2023-03-07T05:04:15.958Z,11.80
2023-03-07T05:06:42.591Z,11.53
2023-03-07T05:09:09.480Z,9.87
2023-03-07T05:11:36.110Z,11.13
2023-03-07T05:14:03.336Z,10.97
2023-03-07T05:16:30.102Z,11.90
2023-03-07T05:18:56.721Z,11.23
2023-03-07T05:21:23.536Z,10.97
2023-03-07T05:23:50.583Z,11.13
2023-03-07T05:26:17.489Z,10.80
2023-03-07T05:28:44.149Z,9.00
2023-03-07T05:31:10.799Z,11.17
2023-03-07T05:33:37.525Z,11.63
2023-03-07T05:36:04.412Z,10.73
2023-03-07T05:38:32.297Z,9.70
2023-03-07T05:40:58.985Z,10.53
2023-03-07T05:43:25.664Z,10.10
2023-03-07T05:45:52.279Z,10.70
2023-03-07T05:48:19.575Z,11.10
2023-03-07T05:50:46.327Z,10.00
2023-03-07T05:53:13.464Z,10.00
2023-03-07T05:55:40.103Z,11.03
2023-03-07T05:58:06.997Z,11.43
2023-03-07T06:00:33.620Z,11.00
2023-03-07T06:03:04.365Z,10.60
2023-03-07T06:05:32.008Z,10.57
2023-03-07T06:07:58.677Z,10.70
2023-03-07T06:10:25.828Z,9.10
2023-03-07T06:12:53.999Z,9.67
2023-03-07T06:15:22.706Z,10.77
2023-03-07T06:17:54.214Z,9.80
2023-03-07T06:20:21.213Z,10.97
2023-03-07T06:22:48.880Z,10.90
2023-03-07T06:25:16.948Z,10.57
2023-03-07T06:27:44.839Z,10.23
2023-03-07T06:30:12.656Z,10.20
2023-03-07T06:32:40.091Z,9.93
2023-03-07T06:35:07.405Z,11.03
2023-03-07T06:37:34.391Z,13.27
2023-03-07T06:40:06.203Z,10.63
2023-03-07T06:42:34.615Z,11.60
2023-03-07T06:45:01.715Z,10.83
2023-03-07T06:47:29.288Z,10.00
2023-03-07T06:49:56.479Z,10.13
2023-03-07T06:52:23.296Z,11.00
2023-03-07T06:54:49.963Z,10.63
2023-03-07T06:57:16.667Z,10.70
2023-03-07T06:59:43.814Z,10.53
2023-03-07T07:02:15.022Z,10.00
2023-03-07T07:04:41.852Z,10.53
2023-03-07T07:07:08.597Z,10.27
2023-03-07T07:09:35.601Z,9.60
2023-03-07T07:12:02.505Z,10.27
2023-03-07T07:14:29.777Z,10.40
2023-03-07T07:16:56.413Z,9.07
2023-03-07T07:19:23.088Z,10.10
2023-03-07T07:21:49.857Z,10.00
2023-03-07T07:24:16.472Z,9.33
2023-03-07T07:26:43.139Z,10.17
2023-03-07T07:29:10.142Z,10.53
2023-03-07T07:31:37.545Z,9.57
2023-03-07T07:34:04.549Z,9.73
2023-03-07T07:36:34.284Z,9.27
2023-03-07T07:39:06.047Z,9.43
2023-03-07T07:41:34.872Z,9.47
2023-03-07T07:44:02.124Z,11.00
2023-03-07T07:46:40.868Z,9.70
2023-03-07T07:49:08.547Z,10.57
2023-03-07T07:51:35.396Z,9.57
2023-03-07T07:54:02.271Z,9.33
2023-03-07T07:56:29.041Z,9.90
2023-03-07T07:58:55.904Z,10.03
2023-03-07T08:01:25.140Z,9.70
2023-03-07T08:03:52.038Z,9.73
2023-03-07T08:06:25.025Z,9.33
2023-03-07T08:08:51.897Z,9.03
2023-03-07T08:11:19.883Z,8.10
2023-03-07T08:13:46.551Z,8.60
2023-03-07T08:16:15.576Z,9.37
2023-03-07T08:18:42.840Z,8.00
2023-03-07T08:21:10.042Z,8.13
2023-03-07T08:23:37.013Z,8.10
2023-03-07T08:26:06.394Z,8.83
2023-03-07T08:28:33.528Z,9.00
2023-03-07T08:31:07.297Z,8.97
2023-03-07T08:33:33.932Z,8.90
2023-03-07T08:36:00.664Z,7.97
2023-03-07T08:38:27.979Z,8.33
2023-03-07T08:40:54.601Z,7.93
2023-03-07T08:43:21.238Z,8.10
2023-03-07T08:45:50.745Z,7.93
2023-03-07T08:48:17.325Z,8.17
2023-03-07T08:50:43.947Z,8.97
2023-03-07T08:53:10.565Z,7.50
2023-03-07T08:55:37.254Z,8.37
2023-03-07T08:58:03.970Z,7.70
2023-03-07T09:00:30.729Z,8.13
2023-03-07T09:03:01.676Z,7.83
2023-03-07T09:05:29.730Z,5.80
2023-03-07T09:07:56.429Z,5.80
2023-03-07T09:10:24.157Z,7.93
2023-03-07T09:12:55.190Z,8.20
2023-03-07T09:15:22.583Z,7.27
2023-03-07T09:17:49.266Z,7.57
2023-03-07T09:20:16.396Z,7.20
2023-03-07T09:22:42.998Z,8.00
2023-03-07T09:25:09.897Z,7.67
2023-03-07T09:27:36.745Z,8.67
2023-03-07T09:30:04.090Z,7.40
2023-03-07T09:32:33.162Z,8.00
2023-03-07T09:34:59.903Z,8.53
2023-03-07T09:37:26.558Z,7.77
2023-03-07T09:39:53.145Z,7.67
2023-03-07T09:42:35.357Z,8.23
2023-03-07T09:45:14.110Z,7.60
2023-03-07T09:48:34.748Z,7.57
2023-03-07T09:51:17.075Z,6.57
2023-03-07T09:53:55.463Z,7.97
2023-03-07T09:56:27.362Z,8.40
2023-03-07T09:59:23.746Z,7.70
2023-03-07T10:02:15.506Z,7.37
2023-03-07T10:04:54.621Z,7.70
2023-03-07T10:07:24.797Z,7.43
2023-03-07T10:09:55.747Z,7.40
2023-03-07T10:12:40.558Z,7.33
2023-03-07T10:15:47.646Z,6.50
2023-03-07T10:18:32.579Z,7.27
2023-03-07T10:21:08.482Z,7.47
2023-03-07T10:23:41.185Z,7.50
2023-03-07T10:26:12.300Z,6.83
2023-03-07T10:28:42.573Z,7.30
2023-03-07T10:31:27.921Z,7.03
2023-03-07T10:33:55.217Z,5.57
2023-03-07T10:36:29.444Z,7.73
2023-03-07T10:39:30.234Z,6.90
2023-03-07T10:41:57.320Z,7.13
2023-03-07T10:44:27.468Z,7.53
2023-03-07T10:46:59.442Z,7.30
2023-03-07T10:49:33.196Z,7.40
2023-03-07T10:52:37.341Z,6.87
2023-03-07T10:55:39.879Z,7.17
2023-03-07T10:58:12.342Z,7.33
2023-03-07T11:00:38.971Z,7.80
2023-03-07T11:03:19.814Z,7.70
2023-03-07T11:05:48.361Z,5.67
2023-03-07T11:08:27.410Z,7.83
2023-03-07T11:10:54.033Z,8.03
2023-03-07T11:13:22.533Z,5.73
2023-03-07T11:15:49.724Z,7.37
2023-03-07T11:18:38.850Z,6.70
2023-03-07T11:21:05.493Z,6.73
2023-03-07T11:23:32.870Z,6.50
2023-03-07T11:26:16.498Z,7.33
2023-03-07T11:28:43.078Z,6.83
2023-03-07T11:31:29.285Z,6.27
2023-03-07T11:34:20.921Z,7.10
2023-03-07T11:36:55.404Z,7.10
2023-03-07T11:39:44.932Z,6.27
2023-03-07T11:42:24.658Z,6.77
2023-03-07T11:44:54.320Z,7.23
2023-03-07T11:47:29.913Z,6.50
2023-03-07T11:50:21.187Z,6.90
2023-03-07T11:53:23.770Z,7.13
2023-03-07T11:56:10.475Z,7.00
2023-03-07T11:58:46.157Z,7.47
2023-03-07T12:01:27.959Z,6.43
2023-03-07T12:04:24.051Z,6.37
2023-03-07T12:07:16.467Z,6.70
2023-03-07T12:10:03.233Z,7.33
2023-03-07T12:12:51.711Z,7.03
2023-03-07T12:15:28.181Z,7.07
2023-03-07T12:18:11.484Z,5.90
2023-03-07T12:21:03.028Z,6.10
2023-03-07T12:23:39.022Z,5.77
2023-03-07T12:26:26.209Z,7.37
2023-03-07T12:29:13.000Z,6.50
2023-03-07T12:31:48.639Z,7.00
2023-03-07T12:34:23.898Z,7.60
2023-03-07T12:36:58.519Z,7.03
2023-03-07T12:39:43.996Z,7.50
2023-03-07T12:42:37.254Z,7.93
2023-03-07T12:45:18.646Z,6.87
2023-03-07T12:47:53.657Z,7.43
2023-03-07T12:50:43.828Z,6.90
2023-03-07T12:53:24.575Z,7.80
2023-03-07T12:56:05.642Z,6.70
2023-03-07T12:58:59.482Z,7.13
2023-03-07T13:01:37.009Z,7.30
2023-03-07T13:04:28.678Z,7.20
2023-03-07T13:07:21.863Z,7.13
2023-03-07T13:09:52.282Z,6.40
2023-03-07T13:12:20.461Z,6.43
2023-03-07T13:14:49.127Z,6.07
2023-03-07T13:17:31.037Z,6.03
2023-03-07T13:20:04.989Z,7.00
2023-03-07T13:22:31.598Z,6.33
2023-03-07T13:25:25.934Z,6.30
2023-03-07T13:27:59.027Z,6.63
2023-03-07T13:30:32.870Z,6.10
2023-03-07T13:33:25.153Z,6.17
2023-03-07T13:35:58.223Z,6.20
2023-03-07T13:38:32.384Z,6.50
2023-03-07T13:41:04.570Z,7.17
2023-03-07T13:43:32.826Z,6.67
2023-03-07T13:46:26.128Z,6.87
2023-03-07T13:48:52.708Z,6.53
2023-03-07T13:51:19.546Z,6.53
2023-03-07T13:53:50.781Z,6.57
2023-03-07T13:56:17.665Z,6.53
2023-03-07T13:58:53.357Z,6.10
2023-03-07T14:01:23.614Z,10.57
2023-03-07T14:03:54.442Z,6.10
2023-03-07T14:06:34.349Z,5.70
2023-03-07T14:09:02.854Z,6.67
2023-03-07T14:11:42.455Z,6.30
2023-03-07T14:14:22.575Z,6.13
2023-03-07T14:16:52.121Z,7.53
2023-03-07T14:19:36.683Z,6.73
2023-03-07T14:22:21.957Z,8.23
2023-03-07T14:25:09.823Z,5.77
2023-03-07T14:27:53.505Z,6.90
2023-03-07T14:30:21.595Z,6.80
2023-03-07T14:32:49.116Z,5.40
2023-03-07T14:35:16.033Z,4.90
2023-03-07T14:37:44.490Z,6.50
2023-03-07T14:40:26.334Z,6.13
2023-03-07T14:43:16.189Z,5.93
2023-03-07T14:46:21.586Z,6.27
2023-03-07T14:49:01.259Z,6.80
2023-03-07T14:51:29.638Z,6.57
2023-03-07T14:53:57.319Z,6.57
2023-03-07T14:56:28.815Z,6.73
2023-03-07T14:58:59.498Z,6.87
2023-03-07T15:01:35.555Z,7.00
2023-03-07T15:04:08.554Z,6.30
2023-03-07T15:06:44.127Z,6.13
2023-03-07T15:09:11.073Z,5.60
2023-03-07T15:11:52.360Z,6.53
2023-03-07T15:14:44.572Z,6.77
2023-03-07T15:17:17.174Z,5.97
2023-03-07T15:19:48.775Z,5.87
2023-03-07T15:22:40.297Z,6.67
2023-03-07T15:25:27.245Z,6.90
2023-03-07T15:28:05.896Z,6.37
2023-03-07T15:30:35.198Z,4.80
2023-03-07T15:33:20.578Z,6.93
2023-03-07T15:36:11.472Z,8.90
2023-03-07T15:38:43.944Z,7.87
2023-03-07T15:41:29.700Z,6.53
2023-03-07T15:44:11.558Z,7.43
2023-03-07T15:46:53.352Z,6.63
2023-03-07T15:49:41.816Z,7.60
2023-03-07T15:52:19.125Z,7.23
2023-03-07T15:54:51.634Z,8.17
2023-03-07T15:57:21.934Z,8.27
2023-03-07T16:00:00.493Z,7.40
2023-03-07T16:02:33.129Z,8.40
2023-03-07T16:05:02.181Z,6.87
2023-03-07T16:07:28.984Z,7.70
2023-03-07T16:09:55.581Z,8.07
2023-03-07T16:12:24.415Z,7.50
2023-03-07T16:14:53.605Z,7.43
2023-03-07T16:17:26.857Z,7.80
2023-03-07T16:19:53.985Z,7.73
2023-03-07T16:22:20.648Z,6.70
2023-03-07T16:24:47.444Z,7.70
2023-03-07T16:27:17.680Z,7.23
2023-03-07T16:29:45.372Z,6.63
2023-03-07T16:32:21.370Z,7.80
2023-03-07T16:34:51.366Z,6.63
2023-03-07T16:37:18.877Z,7.07
2023-03-07T16:39:46.071Z,6.63
2023-03-07T16:42:23.331Z,6.87
2023-03-07T16:44:52.155Z,6.90
2023-03-07T16:47:19.420Z,7.20
2023-03-07T16:49:51.146Z,7.60
2023-03-07T16:52:18.410Z,6.43
2023-03-07T16:54:45.792Z,7.43
2023-03-07T16:57:15.389Z,6.40
2023-03-07T16:59:47.937Z,7.17
2023-03-07T17:02:20.635Z,7.57
2023-03-07T17:04:48.775Z,10.83
2023-03-07T17:07:22.197Z,13.87
2023-03-07T17:09:50.060Z,8.27
2023-03-07T17:12:25.768Z,7.43
2023-03-07T17:14:53.767Z,7.77
2023-03-07T17:17:30.610Z,7.57
2023-03-07T17:19:57.803Z,8.30
2023-03-07T17:22:24.487Z,8.80
2023-03-07T17:24:51.377Z,8.57
2023-03-07T17:27:19.336Z,7.93
2023-03-07T17:29:53.129Z,10.63
2023-03-07T17:32:20.529Z,9.03
2023-03-07T17:34:47.503Z,10.43
2023-03-07T17:37:15.012Z,10.63
2023-03-07T17:39:42.734Z,9.30
2023-03-07T17:42:09.871Z,11.83
2023-03-07T17:44:36.691Z,10.70
2023-03-07T17:47:03.958Z,10.70
2023-03-07T17:49:36.397Z,10.30
2023-03-07T17:52:05.216Z,8.70
2023-03-07T17:54:33.164Z,8.63
2023-03-07T17:57:01.462Z,8.27
2023-03-07T17:59:29.755Z,9.27
2023-03-07T18:01:58.390Z,9.13
2023-03-07T18:04:25.129Z,8.43
2023-03-07T18:06:51.984Z,8.77
2023-03-07T18:09:23.075Z,8.70
2023-03-07T18:11:50.401Z,10.10
2023-03-07T18:14:17.541Z,9.83
2023-03-07T18:16:44.770Z,9.50
2023-03-07T18:19:25.388Z,10.27
2023-03-07T18:21:53.410Z,9.60
2023-03-07T18:24:23.487Z,9.33
2023-03-07T18:26:50.634Z,8.03
2023-03-07T18:29:18.219Z,9.67
2023-03-07T18:31:45.692Z,7.93
2023-03-07T18:34:12.809Z,8.33
2023-03-07T18:36:41.140Z,8.30
2023-03-07T18:39:10.756Z,9.30
2023-03-07T18:41:38.554Z,9.33
2023-03-07T18:44:05.858Z,9.43
2023-03-07T18:46:33.136Z,9.27
2023-03-07T18:49:01.154Z,9.83
2023-03-07T18:51:28.252Z,10.17
2023-03-07T18:53:58.226Z,9.13
2023-03-07T18:56:26.256Z,9.93
2023-03-07T18:58:58.911Z,10.33
2023-03-07T19:01:27.390Z,9.20
2023-03-07T19:03:55.441Z,10.07
2023-03-07T19:06:24.749Z,9.33
2023-03-07T19:08:51.656Z,7.60
2023-03-07T19:11:18.953Z,7.83
2023-03-07T19:13:45.615Z,7.90
2023-03-07T19:16:15.337Z,7.40
2023-03-07T19:18:43.386Z,5.93
2023-03-07T19:21:16.425Z,5.83
2023-03-07T19:23:43.184Z,5.60
2023-03-07T19:26:13.101Z,4.93
2023-03-07T19:28:40.452Z,3.20
2023-03-07T19:31:12.102Z,5.17
2023-03-07T19:33:39.411Z,3.43
2023-03-07T19:36:12.724Z,3.63
2023-03-07T19:38:39.940Z,3.60
2023-03-07T19:41:11.855Z,3.40
2023-03-07T19:43:38.440Z,9.80
2023-03-07T19:46:07.207Z,4.70
2023-03-07T19:48:33.909Z,10.60
2023-03-07T19:51:01.412Z,4.43
2023-03-07T19:53:29.137Z,3.17
2023-03-07T19:55:56.069Z,4.07
2023-03-07T19:58:23.372Z,5.73
2023-03-07T20:00:50.440Z,8.10
2023-03-07T20:03:19.874Z,4.33
2023-03-07T20:05:48.966Z,4.10
2023-03-07T20:08:16.747Z,4.10
2023-03-07T20:10:44.735Z,6.20
2023-03-07T20:13:13.749Z,2.40
2023-03-07T20:15:40.923Z,1.60
2023-03-07T20:18:08.009Z,2.27
2023-03-07T20:20:35.620Z,1.50
2023-03-07T20:23:02.327Z,1.40
2023-03-07T20:25:30.178Z,1.40
2023-03-07T20:27:58.124Z,1.47
2023-03-07T20:30:25.087Z,1.20
2023-03-07T20:32:52.012Z,1.43
2023-03-07T20:35:19.692Z,1.10
2023-03-07T20:37:46.783Z,1.10
2023-03-07T20:40:14.462Z,1.27
2023-03-07T20:42:41.514Z,1.40
2023-03-07T20:45:09.220Z,0.90
2023-03-07T20:47:38.624Z,0.80
2023-03-07T20:50:06.265Z,0.90
2023-03-07T20:52:35.694Z,0.73
2023-03-07T20:55:02.616Z,1.00
2023-03-07T20:57:29.660Z,1.20
2023-03-07T20:59:56.877Z,0.80
2023-03-07T21:02:24.456Z,0.80
2023-03-07T21:04:51.447Z,1.03
2023-03-07T21:07:18.669Z,1.00
2023-03-07T21:09:50.918Z,1.30
2023-03-07T21:12:18.406Z,1.90
2023-03-07T21:14:45.603Z,1.50
2023-03-07T21:17:13.486Z,1.37
2023-03-07T21:19:42.621Z,1.20
2023-03-07T21:22:09.232Z,1.97
2023-03-07T21:24:35.811Z,2.87
2023-03-07T21:27:02.452Z,1.57
2023-03-07T21:29:29.125Z,1.27
2023-03-07T21:31:55.814Z,1.50
2023-03-07T21:34:22.415Z,1.73
2023-03-07T21:36:49.027Z,1.67
2023-03-07T21:39:15.661Z,1.70
2023-03-07T21:41:42.223Z,1.97
2023-03-07T21:44:09.768Z,3.07
2023-03-07T21:46:36.544Z,3.40
2023-03-07T21:49:03.614Z,3.37
2023-03-07T21:51:30.276Z,3.53
2023-03-07T21:53:57.210Z,3.67
2023-03-07T21:56:24.032Z,3.37
2023-03-07T21:58:51.166Z,3.13
2023-03-07T22:01:23.569Z,2.80
2023-03-07T22:03:54.416Z,2.50
2023-03-07T22:06:22.216Z,2.50
2023-03-07T22:08:48.885Z,2.77
2023-03-07T22:11:15.584Z,2.23
2023-03-07T22:13:42.525Z,2.40
2023-03-07T22:16:14.508Z,2.13
2023-03-07T22:18:41.536Z,2.27
2023-03-07T22:21:14.119Z,2.13
2023-03-07T22:23:41.658Z,2.73
2023-03-07T22:26:10.211Z,2.60
2023-03-07T22:28:37.197Z,2.90
2023-03-07T22:31:06.804Z,5.43
2023-03-07T22:33:33.649Z,6.03
2023-03-07T22:36:02.889Z,5.60
2023-03-07T22:38:29.809Z,4.90
2023-03-07T22:41:11.485Z,5.07
2023-03-07T22:43:38.415Z,5.10
2023-03-07T22:46:05.707Z,5.37
2023-03-07T22:48:32.514Z,5.67
2023-03-07T22:50:59.870Z,5.37
2023-03-07T22:53:33.519Z,4.90
2023-03-07T22:56:00.890Z,5.50
2023-03-07T22:58:28.609Z,5.40
2023-03-07T23:00:55.221Z,5.57
2023-03-07T23:03:23.390Z,6.00
2023-03-07T23:05:50.097Z,6.50
2023-03-07T23:08:16.756Z,6.07
2023-03-07T23:10:43.321Z,5.90
2023-03-07T23:13:09.906Z,6.57
2023-03-07T23:15:41.122Z,5.80
2023-03-07T23:18:08.175Z,6.57
2023-03-07T23:20:39.064Z,6.60
2023-03-07T23:23:06.036Z,6.43
2023-03-07T23:25:33.221Z,6.37
2023-03-07T23:27:59.885Z,5.03
2023-03-07T23:30:26.478Z,4.50
2023-03-07T23:32:54.439Z,4.43
2023-03-07T23:35:21.006Z,4.13
2023-03-07T23:37:48.324Z,3.50
2023-03-07T23:40:15.012Z,3.93
2023-03-07T23:42:41.685Z,4.10
2023-03-07T23:45:08.802Z,4.07
2023-03-07T23:47:35.517Z,4.70
2023-03-07T23:50:02.487Z,4.30
2023-03-07T23:52:29.050Z,4.73
2023-03-07T23:54:55.779Z,4.47
2023-03-07T23:57:22.479Z,5.30
2023-03-07T23:59:49.159Z,5.37
